Vega Emtoli — LAQY7 — position and weather

sailwx.info

Track history (hours):
 
Tides and Currents Weather Stations Pressure Air Temp Water Temp Dewpoint Dewpoint Depression Visibility Wind Speed Wind Dir Waves Ship Positions

Vega Emtoli

Last reported at 2015-Jun-28 05:05 UTC. Time now 2015-Jul-01 01:49 UTC.
Position S 23°29' W 041°05'.

Length 59 m; draft 5.2 m.

Type: Pollution control. MMSI: 258026000.

Date/timePositionNaut miles runAvg speedWind from/ knotsBaromVisibWave heightAir tempDewpointWater temp
2015-Jun-28 05:05S 23°29' W 041°05'1 0.0
2015-Jun-27 12:31S 23°29' W 041°05'1 0.3
2015-Jun-27 09:30S 23°29' W 041°05'1 0.1
2015-Jun-26 18:29S 23°28' W 041°05'2 2.4
2015-Jun-26 17:30S 23°29' W 041°03'2 0.8
2015-Jun-26 15:16S 23°27' W 041°04'3 1.2
2015-Jun-26 13:06S 23°25' W 041°06'2 2.1
2015-Jun-26 12:13S 23°27' W 041°05'1 0.3
2015-Jun-26 10:05S 23°28' W 041°05'1 2.1
2015-Jun-26 09:33S 23°29' W 041°05'1 0.4
2015-Jun-26 06:06S 23°28' W 041°06'2 2.5
2015-Jun-26 05:27S 23°30' W 041°05'3 1.0
2015-Jun-26 02:12S 23°27' W 041°06'2 2.8
2015-Jun-26 01:33S 23°28' W 041°05'1 0.4
2015-Jun-25 23:15S 23°27' W 041°04'1 1.8
2015-Jun-25 22:27S 23°28' W 041°05'1 0.3
2015-Jun-25 18:33S 23°27' W 041°05'2 2.4
2015-Jun-25 17:33S 23°29' W 041°04'5 1.5
2015-Jun-25 14:17S 23°25' W 041°02'2 2.3
2015-Jun-25 13:33S 23°26' W 041°02'2 2.2
2015-Jun-25 12:33S 23°29' W 041°02'0 0.1
2015-Jun-25 10:33S 23°29' W 041°02'3 2.4
2015-Jun-25 09:29S 23°31' W 041°02'11 1.7
2015-Jun-25 03:07S 23°21' W 041°07'4 7.4
2015-Jun-25 02:33S 23°18' W 041°09'7 7.4
2015-Jun-25 01:33S 23°11' W 041°13'7 7.2
2015-Jun-25 00:33S 23°05' W 041°17'14 0.5
2015-Jun-23 21:33S 23°03' W 041°02'9 9.3
2015-Jun-23 20:33S 23°12' W 041°01'9 9.2
2015-Jun-23 19:33S 23°21' W 040°60'4 9.1
2015-Jun-23 19:06S 23°25' W 040°59'2 0.1
2015-Jun-22 10:09S 23°27' W 041°01'1 2.0
2015-Jun-22 09:33S 23°28' W 041°01'3 1.1
2015-Jun-22 06:29S 23°25' W 041°01'2 2.5
2015-Jun-22 05:33S 23°27' W 041°01'3 2.6
2015-Jun-22 04:33S 23°29' W 041°02'6 2.1
2015-Jun-22 01:33S 23°24' W 040°59'2 1.7
2015-Jun-22 00:33S 23°25' W 040°60'4 1.9
2015-Jun-21 22:33S 23°29' W 041°01'4 2.0
2015-Jun-21 20:33S 23°25' W 040°59'1 1.4
2015-Jun-21 19:31S 23°27' W 040°59'3 0.3
2015-Jun-21 10:31S 23°26' W 041°03'3 1.4
2015-Jun-21 08:33S 23°23' W 041°03'3 2.8
2015-Jun-21 07:33S 23°26' W 041°04'1 0.6
2015-Jun-21 05:26S 23°26' W 041°02'2 2.8
2015-Jun-21 04:33S 23°24' W 041°01'0 0.3
2015-Jun-21 03:33S 23°25' W 041°01'2 2.3
2015-Jun-21 02:33S 23°27' W 041°01'4 1.2
2015-Jun-20 23:29S 23°23' W 041°01'2 1.7
2015-Jun-20 22:34S 23°25' W 041°01'2 1.6
2015-Jun-20 21:33S 23°26' W 041°02'2 1.7
2015-Jun-20 20:33S 23°28' W 041°03'3 3.0
2015-Jun-20 19:33S 23°30' W 041°01'7 3.2
2015-Jun-20 17:30S 23°24' W 041°02'3 2.9
2015-Jun-20 16:33S 23°26' W 041°03'3 0.9
2015-Jun-20 13:33S 23°25' W 041°05'3 3.0
2015-Jun-20 12:33S 23°28' W 041°04'4 2.2
2015-Jun-20 10:34S 23°23' W 041°05'3 3.1
2015-Jun-20 09:33S 23°26' W 041°04'5 1.5
2015-Jun-20 06:31S 23°22' W 041°01'3 3.6
2015-Jun-20 05:33S 23°26' W 041°02'1 0.5
2015-Jun-20 03:32S 23°26' W 041°01'3 2.8
2015-Jun-20 02:32S 23°24' W 040°60'2 2.1
2015-Jun-20 01:33S 23°26' W 041°00'3 2.9
2015-Jun-20 00:33S 23°29' W 041°01'5 1.3
2015-Jun-19 20:33S 23°24' W 040°58'2 0.6
2015-Jun-19 16:32S 23°26' W 040°57'0 0.2
2015-Jun-19 15:33S 23°26' W 040°56'4 0.9
2015-Jun-19 11:12S 23°24' W 041°00'1 2.0
2015-Jun-19 10:33S 23°25' W 041°00'2 1.7
2015-Jun-19 09:33S 23°27' W 041°01'1 1.5
2015-Jun-19 08:33S 23°29' W 041°01'1 1.4
2015-Jun-19 07:33S 23°30' W 041°01'4 2.6
2015-Jun-19 06:13S 23°27' W 040°60'2 3.0
2015-Jun-19 05:33S 23°25' W 040°59'0 0.2
2015-Jun-19 04:33S 23°25' W 040°59'1 0.5
2015-Jun-19 03:26S 23°25' W 040°59'1 0.7
2015-Jun-19 02:33S 23°26' W 040°60'1 0.9
2015-Jun-19 01:29S 23°26' W 041°01'1 1.2
2015-Jun-19 00:33S 23°26' W 041°02'1 1.2
2015-Jun-18 23:33S 23°26' W 041°03'1 1.5
2015-Jun-18 22:33S 23°27' W 041°05'2 1.8
2015-Jun-18 21:17S 23°27' W 041°08'1 2.0
2015-Jun-18 20:33S 23°26' W 041°09'2 2.1
2015-Jun-18 19:33S 23°25' W 041°10'1 1.1
2015-Jun-18 18:33S 23°25' W 041°09'1 1.1
2015-Jun-18 17:33S 23°25' W 041°08'1 1.1
2015-Jun-18 16:29S 23°26' W 041°06'1 1.2
2015-Jun-18 15:32S 23°26' W 041°05'1 1.3
2015-Jun-18 14:25S 23°27' W 041°04'1 1.5
2015-Jun-18 13:33S 23°27' W 041°03'1 1.2
2015-Jun-18 12:33S 23°28' W 041°02'1 0.6
2015-Jun-18 11:33S 23°29' W 041°02'1 0.6
2015-Jun-18 10:33S 23°29' W 041°03'1 0.5
2015-Jun-18 09:22S 23°28' W 041°03'3 3.9
2015-Jun-18 08:33S 23°26' W 041°01'1 1.3
2015-Jun-18 07:33S 23°25' W 041°01'1 0.9
2015-Jun-18 06:33S 23°25' W 041°01'1 1.0
2015-Jun-18 05:33S 23°26' W 041°01'  
Track history (hours):
 
Tides and Currents Weather Stations Pressure Air Temp Water Temp Dewpoint Dewpoint Depression Visibility Wind Speed Wind Dir Waves Ship Positions

Vega Emtoli

Last reported at 2015-Jun-28 05:05 UTC. Time now 2015-Jul-01 01:49 UTC.
Position S 23°29' W 041°05'.

Length 59 m; draft 5.2 m.

Type: Pollution control. MMSI: 258026000.

Date/timePositionNaut miles runAvg speedWind from/ knotsBaromVisibWave heightAir tempDewpointWater temp
2015-Jun-28 05:05S 23°29' W 041°05'1 0.0
2015-Jun-27 12:31S 23°29' W 041°05'1 0.3
2015-Jun-27 09:30S 23°29' W 041°05'1 0.1
2015-Jun-26 18:29S 23°28' W 041°05'2 2.4
2015-Jun-26 17:30S 23°29' W 041°03'2 0.8
2015-Jun-26 15:16S 23°27' W 041°04'3 1.2
2015-Jun-26 13:06S 23°25' W 041°06'2 2.1
2015-Jun-26 12:13S 23°27' W 041°05'1 0.3
2015-Jun-26 10:05S 23°28' W 041°05'1 2.1
2015-Jun-26 09:33S 23°29' W 041°05'1 0.4
2015-Jun-26 06:06S 23°28' W 041°06'2 2.5
2015-Jun-26 05:27S 23°30' W 041°05'3 1.0
2015-Jun-26 02:12S 23°27' W 041°06'2 2.8
2015-Jun-26 01:33S 23°28' W 041°05'1 0.4
2015-Jun-25 23:15S 23°27' W 041°04'1 1.8
2015-Jun-25 22:27S 23°28' W 041°05'1 0.3
2015-Jun-25 18:33S 23°27' W 041°05'2 2.4
2015-Jun-25 17:33S 23°29' W 041°04'5 1.5
2015-Jun-25 14:17S 23°25' W 041°02'2 2.3
2015-Jun-25 13:33S 23°26' W 041°02'2 2.2
2015-Jun-25 12:33S 23°29' W 041°02'0 0.1
2015-Jun-25 10:33S 23°29' W 041°02'3 2.4
2015-Jun-25 09:29S 23°31' W 041°02'11 1.7
2015-Jun-25 03:07S 23°21' W 041°07'4 7.4
2015-Jun-25 02:33S 23°18' W 041°09'7 7.4
2015-Jun-25 01:33S 23°11' W 041°13'7 7.2
2015-Jun-25 00:33S 23°05' W 041°17'14 0.5
2015-Jun-23 21:33S 23°03' W 041°02'9 9.3
2015-Jun-23 20:33S 23°12' W 041°01'9 9.2
2015-Jun-23 19:33S 23°21' W 040°60'4 9.1
2015-Jun-23 19:06S 23°25' W 040°59'2 0.1
2015-Jun-22 10:09S 23°27' W 041°01'1 2.0
2015-Jun-22 09:33S 23°28' W 041°01'3 1.1
2015-Jun-22 06:29S 23°25' W 041°01'2 2.5
2015-Jun-22 05:33S 23°27' W 041°01'3 2.6
2015-Jun-22 04:33S 23°29' W 041°02'6 2.1
2015-Jun-22 01:33S 23°24' W 040°59'2 1.7
2015-Jun-22 00:33S 23°25' W 040°60'4 1.9
2015-Jun-21 22:33S 23°29' W 041°01'4 2.0
2015-Jun-21 20:33S 23°25' W 040°59'1 1.4
2015-Jun-21 19:31S 23°27' W 040°59'3 0.3
2015-Jun-21 10:31S 23°26' W 041°03'3 1.4
2015-Jun-21 08:33S 23°23' W 041°03'3 2.8
2015-Jun-21 07:33S 23°26' W 041°04'1 0.6
2015-Jun-21 05:26S 23°26' W 041°02'2 2.8
2015-Jun-21 04:33S 23°24' W 041°01'0 0.3
2015-Jun-21 03:33S 23°25' W 041°01'2 2.3
2015-Jun-21 02:33S 23°27' W 041°01'4 1.2
2015-Jun-20 23:29S 23°23' W 041°01'2 1.7
2015-Jun-20 22:34S 23°25' W 041°01'2 1.6
2015-Jun-20 21:33S 23°26' W 041°02'2 1.7
2015-Jun-20 20:33S 23°28' W 041°03'3 3.0
2015-Jun-20 19:33S 23°30' W 041°01'7 3.2
2015-Jun-20 17:30S 23°24' W 041°02'3 2.9
2015-Jun-20 16:33S 23°26' W 041°03'3 0.9
2015-Jun-20 13:33S 23°25' W 041°05'3 3.0
2015-Jun-20 12:33S 23°28' W 041°04'4 2.2
2015-Jun-20 10:34S 23°23' W 041°05'3 3.1
2015-Jun-20 09:33S 23°26' W 041°04'5 1.5
2015-Jun-20 06:31S 23°22' W 041°01'3 3.6
2015-Jun-20 05:33S 23°26' W 041°02'1 0.5
2015-Jun-20 03:32S 23°26' W 041°01'3 2.8
2015-Jun-20 02:32S 23°24' W 040°60'2 2.1
2015-Jun-20 01:33S 23°26' W 041°00'3 2.9
2015-Jun-20 00:33S 23°29' W 041°01'5 1.3
2015-Jun-19 20:33S 23°24' W 040°58'2 0.6
2015-Jun-19 16:32S 23°26' W 040°57'0 0.2
2015-Jun-19 15:33S 23°26' W 040°56'4 0.9
2015-Jun-19 11:12S 23°24' W 041°00'1 2.0
2015-Jun-19 10:33S 23°25' W 041°00'2 1.7
2015-Jun-19 09:33S 23°27' W 041°01'1 1.5
2015-Jun-19 08:33S 23°29' W 041°01'1 1.4
2015-Jun-19 07:33S 23°30' W 041°01'4 2.6
2015-Jun-19 06:13S 23°27' W 040°60'2 3.0
2015-Jun-19 05:33S 23°25' W 040°59'0 0.2
2015-Jun-19 04:33S 23°25' W 040°59'1 0.5
2015-Jun-19 03:26S 23°25' W 040°59'1 0.7
2015-Jun-19 02:33S 23°26' W 040°60'1 0.9
2015-Jun-19 01:29S 23°26' W 041°01'1 1.2
2015-Jun-19 00:33S 23°26' W 041°02'1 1.2
2015-Jun-18 23:33S 23°26' W 041°03'1 1.5
2015-Jun-18 22:33S 23°27' W 041°05'2 1.8
2015-Jun-18 21:17S 23°27' W 041°08'1 2.0
2015-Jun-18 20:33S 23°26' W 041°09'2 2.1
2015-Jun-18 19:33S 23°25' W 041°10'1 1.1
2015-Jun-18 18:33S 23°25' W 041°09'1 1.1
2015-Jun-18 17:33S 23°25' W 041°08'1 1.1
2015-Jun-18 16:29S 23°26' W 041°06'1 1.2
2015-Jun-18 15:32S 23°26' W 041°05'1 1.3
2015-Jun-18 14:25S 23°27' W 041°04'1 1.5
2015-Jun-18 13:33S 23°27' W 041°03'1 1.2
2015-Jun-18 12:33S 23°28' W 041°02'1 0.6
2015-Jun-18 11:33S 23°29' W 041°02'1 0.6
2015-Jun-18 10:33S 23°29' W 041°03'1 0.5
2015-Jun-18 09:22S 23°28' W 041°03'3 3.9
2015-Jun-18 08:33S 23°26' W 041°01'1 1.3
2015-Jun-18 07:33S 23°25' W 041°01'1 0.9
2015-Jun-18 06:33S 23°25' W 041°01'1 1.0
2015-Jun-18 05:33S 23°26' W 041°01'  

Dump ship's entire track history